Time;durP1;ratioP1;P1;durP2;ratioP2;P2;SDS_P1;SDS_P2;PMS_P1;PMS_P2;Temp;Humidity;BMP_temperature;BMP_pressure;BME280_temperature;BME280_humidity;BME280_pressure;Samples;Min_cycle;Max_cycle;Signal;HPM_P1;HPM_P2
2023/06/07 00:01:49;;;;;;;10.13;6.53;;;;;;;;;;4984879;28;20042;-84
2023/06/07 00:04:15;;;;;;;9.57;6.13;;;;;;;;;;4988482;28;20041;-84
2023/06/07 00:06:41;;;;;;;14.50;7.35;;;;;;;;;;5002745;28;20057;-83
2023/06/07 00:09:10;;;;;;;11.88;7.47;;;;;;;;;;4982331;28;20045;-83
2023/06/07 00:11:37;;;;;;;13.88;7.82;;;;;;;;;;4986135;28;20123;-87
2023/06/07 00:14:03;;;;;;;13.23;7.95;;;;;;;;;;4969781;28;20045;-83
2023/06/07 00:16:29;;;;;;;13.43;7.38;;;;;;;;;;4983694;28;20046;-85
2023/06/07 00:18:57;;;;;;;13.00;6.75;;;;;;;;;;4983950;28;20044;-83
2023/06/07 00:21:23;;;;;;;11.35;7.28;;;;;;;;;;4985744;28;20052;-83
2023/06/07 00:23:49;;;;;;;13.00;7.55;;;;;;;;;;5002050;28;20095;-84
2023/06/07 00:26:15;;;;;;;13.57;7.38;;;;;;;;;;4964401;28;20100;-83
2023/06/07 00:28:41;;;;;;;9.75;6.75;;;;;;;;;;4999209;28;20492;-86
2023/06/07 00:31:07;;;;;;;13.13;7.07;;;;;;;;;;4982212;28;20046;-83
2023/06/07 00:33:34;;;;;;;17.30;7.63;;;;;;;;;;4956981;28;20042;-83
2023/06/07 00:36:00;;;;;;;11.25;7.10;;;;;;;;;;4967723;28;20081;-83
2023/06/07 00:38:25;;;;;;;15.25;7.57;;;;;;;;;;4990602;28;20066;-83
2023/06/07 00:40:51;;;;;;;15.13;7.43;;;;;;;;;;4973171;28;20052;-86
2023/06/07 00:43:17;;;;;;;7.97;5.65;;;;;;;;;;4974855;28;20042;-83
2023/06/07 00:45:43;;;;;;;14.90;6.57;;;;;;;;;;4966230;28;20416;-85
2023/06/07 00:48:10;;;;;;;10.43;7.00;;;;;;;;;;4987496;28;20046;-85
2023/06/07 00:50:36;;;;;;;13.57;6.97;;;;;;;;;;4982283;28;20085;-84
2023/06/07 00:53:03;;;;;;;8.85;5.97;;;;;;;;;;4981030;28;20490;-84
2023/06/07 00:55:30;;;;;;;10.95;6.53;;;;;;;;;;4972556;28;20043;-84
2023/06/07 00:57:56;;;;;;;10.63;6.05;;;;;;;;;;4983290;28;20042;-83
2023/06/07 01:00:22;;;;;;;10.52;6.03;;;;;;;;;;5004737;28;20041;-84
2023/06/07 01:02:49;;;;;;;12.50;6.28;;;;;;;;;;5008947;28;20798;-83
2023/06/07 01:05:16;;;;;;;11.88;6.30;;;;;;;;;;4976606;28;20479;-85
2023/06/07 01:07:46;;;;;;;7.75;5.63;;;;;;;;;;4980318;28;20046;-84
2023/06/07 01:10:12;;;;;;;10.80;6.60;;;;;;;;;;4976146;28;20052;-83
2023/06/07 01:12:39;;;;;;;12.73;6.47;;;;;;;;;;5007920;28;20435;-83
2023/06/07 01:15:05;;;;;;;8.38;6.95;;;;;;;;;;4989550;28;20046;-84
2023/06/07 01:17:32;;;;;;;8.13;6.32;;;;;;;;;;4985096;28;20042;-83
2023/06/07 01:19:59;;;;;;;7.90;6.07;;;;;;;;;;4987146;28;20103;-84
2023/06/07 01:22:27;;;;;;;14.05;6.82;;;;;;;;;;4991472;28;20073;-83
2023/06/07 01:24:57;;;;;;;12.40;7.22;;;;;;;;;;5001878;28;20041;-83
2023/06/07 01:27:27;;;;;;;13.05;6.70;;;;;;;;;;4986977;28;20034;-83
2023/06/07 01:29:54;;;;;;;9.88;6.20;;;;;;;;;;5002646;28;20038;-83
2023/06/07 01:32:20;;;;;;;10.18;5.93;;;;;;;;;;4974304;28;20046;-83
2023/06/07 01:34:46;;;;;;;9.68;5.15;;;10.30;99.90;;;;;;4990625;28;20129;-83
2023/06/07 01:37:12;;;;;;;10.82;6.03;;;;;;;;;;5004186;28;20051;-86
2023/06/07 01:39:40;;;;;;;12.45;7.03;;;;;;;;;;4971966;28;20178;-84
2023/06/07 01:42:07;;;;;;;12.95;7.38;;;;;;;;;;4987747;28;20104;-83
2023/06/07 01:44:34;;;;;;;11.95;8.13;;;;;;;;;;4973997;28;20044;-83
2023/06/07 01:47:00;;;;;;;12.52;7.15;;;;;;;;;;4971971;28;20046;-83
2023/06/07 01:49:26;;;;;;;11.50;7.72;;;;;;;;;;4986450;28;20041;-83
2023/06/07 01:51:52;;;;;;;13.40;8.23;;;;;;;;;;4970912;28;20546;-83
2023/06/07 01:54:19;;;;;;;9.70;7.07;;;;;;;;;;4987814;28;20041;-83
2023/06/07 01:56:55;;;;;;;13.38;7.10;;;;;;;;;;4990828;28;20042;-84
2023/06/07 01:59:31;;;;;;;13.10;8.05;;;10.30;99.90;;;;;;4989255;28;20125;-83
2023/06/07 02:02:01;;;;;;;13.40;7.80;;;;;;;;;;4971716;28;20041;-83
2023/06/07 02:04:31;;;;;;;15.50;8.32;;;;;;;;;;4961129;28;20049;-83
2023/06/07 02:07:01;;;;;;;15.38;9.48;;;;;;;;;;4984420;28;20081;-83
2023/06/07 02:09:28;;;;;;;12.18;7.75;;;;;;;;;;4997577;28;20082;-83
2023/06/07 02:11:54;;;;;;;8.95;7.30;;;;;;;;;;4988128;28;20049;-83
2023/06/07 02:14:21;;;;;;;11.63;6.95;;;;;;;;;;4974288;28;20354;-83
2023/06/07 02:16:47;;;;;;;18.98;12.75;;;;;;;;;;4993421;28;20030;-85
2023/06/07 02:19:16;;;;;;;18.05;12.10;;;;;;;;;;4968923;28;20045;-83
2023/06/07 02:21:42;;;;;;;17.02;11.52;;;;;;;;;;4975467;28;20042;-83
2023/06/07 02:24:08;;;;;;;12.20;9.55;;;;;;;;;;4974980;28;20049;-87
2023/06/07 02:26:35;;;;;;;11.95;7.90;;;;;;;;;;4981443;28;20504;-83
2023/06/07 02:29:02;;;;;;;15.07;9.43;;;;;;;;;;4982886;28;20803;-85
2023/06/07 02:31:28;;;;;;;13.07;8.68;;;;;;;;;;4976018;28;20046;-84
2023/06/07 02:33:54;;;;;;;12.73;8.63;;;;;;;;;;4973392;28;20050;-84
2023/06/07 02:36:33;;;;;;;11.75;7.68;;;;;;;;;;4970384;28;20061;-83
2023/06/07 02:38:59;;;;;;;10.88;8.32;;;;;;;;;;4963835;28;20049;-85
2023/06/07 02:41:25;;;;;;;12.98;8.07;;;;;;;;;;4981418;28;20121;-83
2023/06/07 02:43:51;;;;;;;13.38;6.85;;;;;;;;;;4980553;28;20606;-85
2023/06/07 02:46:17;;;;;;;13.30;7.53;;;;;;;;;;4987412;28;20046;-83
2023/06/07 02:48:43;;;;;;;9.18;6.32;;;;;;;;;;4965607;28;20042;-83
2023/06/07 02:51:09;;;;;;;12.32;7.28;;;;;;;;;;4983989;28;20046;-83
2023/06/07 02:53:35;;;;;;;12.60;7.30;;;;;;;;;;4982876;28;20039;-83
2023/06/07 02:56:01;;;;;;;11.40;7.63;;;;;;;;;;4968372;28;20416;-84
2023/06/07 02:58:27;;;;;;;15.32;7.50;;;;;;;;;;4993732;28;20046;-83
2023/06/07 03:00:54;;;;;;;12.18;7.72;;;;;;;;;;4968396;28;20046;-83
2023/06/07 03:03:20;;;;;;;11.98;7.97;;;;;;;;;;4986927;28;20093;-84
2023/06/07 03:05:48;;;;;;;11.52;7.88;;;;;;;;;;4965836;28;20038;-83
2023/06/07 03:08:14;;;;;;;11.27;7.53;;;;;;;;;;4966319;28;20046;-83
2023/06/07 03:10:40;;;;;;;12.65;7.72;;;;;;;;;;4982486;28;20408;-84
2023/06/07 03:13:06;;;;;;;14.15;7.72;;;;;;;;;;4980119;28;20046;-83
2023/06/07 03:15:32;;;;;;;15.55;7.65;;;;;;;;;;4964161;28;20046;-85
2023/06/07 03:17:58;;;;;;;11.15;7.90;;;;;;;;;;4976851;28;20090;-83
2023/06/07 03:20:24;;;;;;;15.80;8.18;;;;;;;;;;4964094;28;20816;-84
2023/06/07 03:22:50;;;;;;;17.80;7.75;;;;;;;;;;4964814;28;20042;-83
2023/06/07 03:25:16;;;;;;;17.23;7.97;;;;;;;;;;4967992;28;20093;-83
2023/06/07 03:27:45;;;;;;;17.27;7.97;;;;;;;;;;4982016;28;20043;-84
2023/06/07 03:30:11;;;;;;;13.48;7.40;;;;;;;;;;4981483;28;20097;-84
2023/06/07 03:32:37;;;;;;;13.35;8.50;;;;;;;;;;4984217;28;20038;-87
2023/06/07 03:35:03;;;;;;;17.80;7.88;;;;;;;;;;4969895;28;20048;-86
2023/06/07 03:37:29;;;;;;;11.25;7.55;;;;;;;;;;5000883;28;20804;-83
2023/06/07 03:39:55;;;;;;;16.48;7.15;;;;;;;;;;5001462;28;20100;-85
2023/06/07 03:42:21;;;;;;;19.25;8.15;;;;;;;;;;4970520;28;20101;-83
2023/06/07 03:44:47;;;;;;;16.02;9.10;;;;;;;;;;4980543;28;20077;-83
2023/06/07 03:47:13;;;;;;;21.25;7.45;;;;;;;;;;4962462;28;20086;-83
2023/06/07 03:49:39;;;;;;;12.90;8.68;;;;;;;;;;4977617;28;20085;-83
2023/06/07 03:52:05;;;;;;;14.93;8.35;;;;;;;;;;4966145;28;20038;-84
2023/06/07 03:54:31;;;;;;;11.48;7.28;;;;;;;;;;4984475;28;20129;-83
2023/06/07 03:56:57;;;;;;;15.25;7.57;;;;;;;;;;4987412;28;20061;-83
2023/06/07 03:59:25;;;;;;;15.85;8.13;;;;;;;;;;4967660;28;20177;-84
2023/06/07 04:01:51;;;;;;;16.88;7.97;;;;;;;;;;4986990;28;20507;-83
2023/06/07 04:04:17;;;;;;;10.88;6.72;;;;;;;;;;4973091;28;20042;-83
2023/06/07 04:06:44;;;;;;;16.67;7.70;;;;;;;;;;4981752;28;20046;-84
2023/06/07 04:09:10;;;;;;;12.90;7.50;;;;;;;;;;4971035;28;20046;-83
2023/06/07 04:11:36;;;;;;;14.30;6.97;;;;;;;;;;4967485;28;20046;-84
2023/06/07 04:14:02;;;;;;;17.95;7.68;;;;;;;;;;4969417;28;20034;-83
2023/06/07 04:16:28;;;;;;;17.52;6.68;;;;;;;;;;4977458;28;20129;-86
2023/06/07 04:18:55;;;;;;;16.50;7.18;;;;;;;;;;4981665;28;20555;-83
2023/06/07 04:21:20;;;;;;;15.43;6.60;;;;;;;;;;4970431;28;20045;-84
2023/06/07 04:23:46;;;;;;;13.85;6.40;;;;;;;;;;4970184;28;20507;-83
2023/06/07 04:26:15;;;;;;;17.52;6.22;;;;;;;;;;4978739;28;20149;-84
2023/06/07 04:28:41;;;;;;;20.33;7.43;;;;;;;;;;4971697;28;20049;-83
2023/06/07 04:31:08;;;;;;;15.27;6.65;;;;;;;;;;4977685;28;20050;-83
2023/06/07 04:33:35;;;;;;;12.13;7.00;;;;;;;;;;4972187;28;20112;-84
2023/06/07 04:36:01;;;;;;;22.85;6.43;;;;;;;;;;4971423;28;20092;-86
2023/06/07 04:38:29;;;;;;;14.25;7.45;;;;;;;;;;4981572;28;20503;-83
2023/06/07 04:40:55;;;;;;;13.35;6.45;;;;;;;;;;4977941;28;20097;-82
2023/06/07 04:43:23;;;;;;;12.50;6.65;;;;;;;;;;4986497;28;20041;-84
2023/06/07 04:45:55;;;;;;;16.80;6.20;;;;;;;;;;4964709;28;20452;-86
2023/06/07 04:48:25;;;;;;;14.30;5.60;;;;;;;;;;4984571;28;20081;-83
2023/06/07 04:50:52;;;;;;;16.70;5.60;;;;;;;;;;4979475;28;20520;-83
2023/06/07 04:53:19;;;;;;;17.02;5.85;;;;;;;;;;4979734;28;20586;-84
2023/06/07 04:55:46;;;;;;;13.43;5.22;;;;;;;;;;4968225;28;20092;-83
2023/06/07 04:58:12;;;;;;;17.33;5.28;;;;;;;;;;4996777;28;20049;-84
2023/06/07 05:00:39;;;;;;;14.23;5.80;;;11.60;99.90;;;;;;5002218;28;20043;-83
2023/06/07 05:03:08;;;;;;;17.40;5.88;;;;;;;;;;4994062;28;20173;-83
2023/06/07 05:05:37;;;;;;;19.85;6.03;;;;;;;;;;4986351;28;20717;-83
2023/06/07 05:08:04;;;;;;;10.88;5.28;;;;;;;;;;4968870;28;20042;-83
2023/06/07 05:10:30;;;;;;;16.55;6.07;;;;;;;;;;4983192;28;20050;-84
2023/06/07 05:12:56;;;;;;;16.88;6.65;;;;;;;;;;4985218;28;20034;-83
2023/06/07 05:15:23;;;;;;;17.88;5.93;;;;;;;;;;4968050;28;20045;-83
2023/06/07 05:17:49;;;;;;;22.88;7.28;;;;;;;;;;4985362;28;20693;-83
2023/06/07 05:20:15;;;;;;;11.50;4.75;;;11.90;99.90;;;;;;4965168;28;20046;-83
2023/06/07 05:22:42;;;;;;;14.15;4.70;;;;;;;;;;4969350;28;20045;-84
2023/06/07 05:25:09;;;;;;;20.10;5.60;;;;;;;;;;4970922;28;20042;-85
2023/06/07 05:27:36;;;;;;;14.57;5.15;;;;;;;;;;4978450;28;20158;-83
2023/06/07 05:30:04;;;;;;;12.65;4.63;;;;;;;;;;4983196;28;20526;-85
2023/06/07 05:32:30;;;;;;;19.88;6.05;;;;;;;;;;4979595;28;20061;-86
2023/06/07 05:34:57;;;;;;;14.68;5.00;;;;;;;;;;4980655;28;20385;-83
2023/06/07 05:37:24;;;;;;;13.48;4.30;;;;;;;;;;4963099;28;20065;-83
2023/06/07 05:39:50;;;;;;;18.20;6.22;;;;;;;;;;5001273;28;20050;-84
2023/06/07 05:42:16;;;;;;;12.18;4.65;;;;;;;;;;4981304;28;20074;-83
2023/06/07 05:44:45;;;;;;;14.15;4.40;;;12.40;99.90;;;;;;4963521;28;20078;-83
2023/06/07 05:47:11;;;;;;;17.00;5.15;;;;;;;;;;4974686;28;20042;-84
2023/06/07 05:49:37;;;;;;;16.80;4.93;;;;;;;;;;4975471;28;20050;-84
2023/06/07 05:52:03;;;;;;;14.45;4.50;;;;;;;;;;4987192;28;20049;-83
2023/06/07 05:54:29;;;;;;;13.43;3.83;;;;;;;;;;4963331;28;20084;-83
2023/06/07 05:56:55;;;;;;;15.95;5.18;;;;;;;;;;4973432;28;20037;-83
2023/06/07 05:59:21;;;;;;;12.20;4.00;;;;;;;;;;4973036;28;20567;-85
2023/06/07 06:01:48;;;;;;;8.52;3.42;;;;;;;;;;4971627;28;20124;-84
2023/06/07 06:04:16;;;;;;;12.95;4.72;;;;;;;;;;4987712;28;20050;-83
2023/06/07 06:06:42;;;;;;;12.20;4.20;;;;;;;;;;4981966;28;20719;-88
2023/06/07 06:09:09;;;;;;;16.10;5.72;;;;;;;;;;4975019;28;20046;-83
2023/06/07 06:11:35;;;;;;;17.13;5.82;;;;;;;;;;4979453;28;20064;-83
2023/06/07 06:14:01;;;;;;;11.63;3.70;;;;;;;;;;5006226;28;20042;-84
2023/06/07 06:16:27;;;;;;;11.15;3.97;;;;;;;;;;4980896;28;20734;-84
2023/06/07 06:18:53;;;;;;;13.80;4.35;;;;;;;;;;4968154;28;20049;-84
2023/06/07 06:21:19;;;;;;;13.27;3.60;;;;;;;;;;4981328;28;20063;-84
2023/06/07 06:23:45;;;;;;;13.40;3.88;;;14.80;99.90;;;;;;4974430;28;20042;-84
2023/06/07 06:26:11;;;;;;;10.70;3.03;;;;;;;;;;4999112;28;20048;-86
2023/06/07 06:28:37;;;;;;;10.93;2.78;;;;;;;;;;4972107;28;20050;-86
2023/06/07 06:31:03;;;;;;;11.98;3.03;;;;;;;;;;4987477;28;20133;-85
2023/06/07 06:33:29;;;;;;;12.90;3.05;;;15.90;99.90;;;;;;4968188;28;20096;-84
2023/06/07 06:35:55;;;;;;;9.60;3.10;;;16.30;99.90;;;;;;4985588;28;20038;-84
2023/06/07 06:38:21;;;;;;;8.40;3.00;;;;;;;;;;4969295;28;20030;-86
2023/06/07 06:40:47;;;;;;;14.27;3.20;;;;;;;;;;4966874;28;20052;-84
2023/06/07 06:43:13;;;;;;;14.32;3.33;;;;;;;;;;4981405;28;20042;-84
2023/06/07 06:45:38;;;;;;;9.93;3.40;;;15.70;99.90;;;;;;4972270;28;20054;-84
2023/06/07 06:48:05;;;;;;;11.13;3.10;;;15.40;99.90;;;;;;4967876;28;20100;-84
2023/06/07 06:50:31;;;;;;;9.63;3.00;;;;;;;;;;4982517;28;20563;-84
2023/06/07 06:52:57;;;;;;;11.30;2.63;;;;;;;;;;4978537;28;20049;-83
2023/06/07 06:55:23;;;;;;;7.45;3.08;;;;;;;;;;4973720;28;20049;-85
2023/06/07 06:57:49;;;;;;;13.52;4.18;;;;;;;;;;4988651;28;20092;-84
2023/06/07 07:00:15;;;;;;;11.35;3.42;;;14.90;99.90;;;;;;4984827;28;20125;-84
2023/06/07 07:02:41;;;;;;;11.38;3.45;;;;;;;;;;4969949;28;20042;-86
2023/06/07 07:05:07;;;;;;;11.68;4.13;;;;;;;;;;4973965;28;20045;-86
2023/06/07 07:07:34;;;;;;;7.88;3.33;;;;;;;;;;4988067;28;20052;-86
2023/06/07 07:10:00;;;;;;;10.88;3.63;;;;;;;;;;4984726;28;20042;-85
2023/06/07 07:12:27;;;;;;;10.70;3.40;;;;;;;;;;4982249;28;20161;-83
2023/06/07 07:14:53;;;;;;;11.05;3.58;;;;;;;;;;4984570;28;20052;-85
2023/06/07 07:17:20;;;;;;;17.92;3.85;;;15.10;99.90;;;;;;4972047;28;20046;-85
2023/06/07 07:19:46;;;;;;;12.93;4.00;;;;;;;;;;4981867;28;20126;-84
2023/06/07 07:22:12;;;;;;;14.18;3.80;;;;;;;;;;4981513;28;20186;-85
2023/06/07 07:24:38;;;;;;;10.27;4.22;;;;;;;;;;4969623;28;20048;-85
2023/06/07 07:27:06;;;;;;;9.00;3.00;;;15.00;99.90;;;;;;4973816;28;20076;-84
2023/06/07 07:29:32;;;;;;;11.07;3.40;;;;;;;;;;4971423;28;20066;-84
2023/06/07 07:31:58;;;;;;;10.52;3.45;;;;;;;;;;4988843;28;21064;-83
2023/06/07 07:34:24;;;;;;;14.13;3.53;;;;;;;;;;4984615;28;20133;-88
2023/06/07 07:36:50;;;;;;;14.90;3.65;;;;;;;;;;4989445;28;20124;-83
2023/06/07 07:39:16;;;;;;;19.15;5.57;;;15.20;99.90;;;;;;4987312;28;20080;-83
2023/06/07 07:41:43;;;;;;;8.60;3.40;;;;;;;;;;4990631;28;20116;-83
2023/06/07 07:44:09;;;;;;;11.10;3.80;;;;;;;;;;4966765;28;20050;-83
2023/06/07 07:46:35;;;;;;;12.45;3.55;;;15.30;99.90;;;;;;4988876;28;20045;-84
2023/06/07 07:49:01;;;;;;;8.88;3.63;;;;;;;;;;4973416;28;20147;-84
2023/06/07 07:51:28;;;;;;;19.65;4.70;;;;;;;;;;4996500;28;20041;-86
2023/06/07 07:53:53;;;;;;;11.80;4.20;;;;;;;;;;4995997;28;20061;-85
2023/06/07 07:56:21;;;;;;;12.00;3.80;;;15.40;99.90;;;;;;4979365;28;20416;-87
2023/06/07 07:58:48;;;;;;;10.38;3.13;;;15.40;99.90;;;;;;4986825;28;20112;-84
2023/06/07 08:01:23;;;;;;;7.95;3.55;;;15.50;99.90;;;;;;4974183;28;20081;-84
2023/06/07 08:03:50;;;;;;;10.27;3.67;;;;;;;;;;5000939;28;20120;-86
2023/06/07 08:06:16;;;;;;;7.60;3.90;;;;;;;;;;4979303;28;20137;-84
2023/06/07 08:08:42;;;;;;;13.93;3.78;;;15.60;99.90;;;;;;4971242;28;20136;-84
2023/06/07 08:11:08;;;;;;;14.80;3.90;;;;;;;;;;4975957;28;20171;-84
2023/06/07 08:13:33;;;;;;;10.77;3.65;;;15.60;99.90;;;;;;4987642;28;20068;-84
2023/06/07 08:15:59;;;;;;;9.00;4.30;;;;;;;;;;4984879;28;20120;-84
2023/06/07 08:18:25;;;;;;;9.40;3.67;;;;;;;;;;4969523;28;20061;-86
2023/06/07 08:20:51;;;;;;;10.30;3.58;;;;;;;;;;4966740;28;21723;-84
2023/06/07 08:23:17;;;;;;;12.18;3.90;;;;;;;;;;4987091;28;20061;-84
2023/06/07 08:25:43;;;;;;;12.55;3.70;;;;;;;;;;4971598;28;20053;-85
2023/06/07 08:28:09;;;;;;;12.90;3.63;;;;;;;;;;4985036;28;20046;-84
2023/06/07 08:30:35;;;;;;;10.38;3.70;;;;;;;;;;4979872;28;20424;-85
2023/06/07 08:33:01;;;;;;;10.63;3.90;;;;;;;;;;4972824;28;20204;-85
2023/06/07 08:35:27;;;;;;;15.05;4.28;;;;;;;;;;4972617;28;20049;-85
2023/06/07 08:37:53;;;;;;;13.52;4.25;;;;;;;;;;4965038;28;20128;-87
2023/06/07 08:40:19;;;;;;;15.73;4.28;;;15.90;99.90;;;;;;4966256;28;20680;-85
2023/06/07 08:42:45;;;;;;;13.55;4.18;;;;;;;;;;4986282;28;20042;-86
2023/06/07 08:45:11;;;;;;;13.15;4.20;;;;;;;;;;4978796;28;20824;-85
2023/06/07 08:47:37;;;;;;;11.80;3.25;;;;;;;;;;4969353;28;20041;-86
2023/06/07 08:50:04;;;;;;;9.25;3.53;;;16.20;99.90;;;;;;4994102;28;20046;-85
2023/06/07 08:52:39;;;;;;;9.57;3.95;;;16.30;99.90;;;;;;4968086;28;20053;-86
2023/06/07 08:55:10;;;;;;;10.60;3.95;;;16.20;99.90;;;;;;5009984;28;20037;-85
2023/06/07 08:57:36;;;;;;;11.73;3.60;;;;;;;;;;4971577;28;20041;-85
2023/06/07 09:00:06;;;;;;;12.35;4.57;;;;;;;;;;4988155;28;20046;-85
2023/06/07 09:02:32;;;;;;;12.73;3.97;;;;;;;;;;4974822;28;20050;-86
2023/06/07 09:05:05;;;;;;;12.48;4.38;;;16.50;99.90;;;;;;5005214;28;20165;-85
2023/06/07 09:07:31;;;;;;;10.40;4.28;;;;;;;;;;4974845;28;20053;-85
2023/06/07 09:09:57;;;;;;;11.95;4.32;;;;;;;;;;5007092;28;20068;-86
2023/06/07 09:12:23;;;;;;;12.32;5.35;;;;;;;;;;4969351;28;20445;-87
2023/06/07 09:14:50;;;;;;;14.38;5.35;;;16.60;99.90;;;;;;4976807;28;20130;-85
2023/06/07 09:17:16;;;;;;;10.43;4.63;;;;;;;;;;4970617;28;20045;-86
2023/06/07 09:19:42;;;;;;;8.63;4.15;;;16.80;99.90;;;;;;4979813;28;20389;-86
2023/06/07 09:22:13;;;;;;;15.32;4.15;;;16.80;99.90;;;;;;4974469;28;20048;-85
2023/06/07 09:24:40;;;;;;;10.25;4.18;;;16.70;99.90;;;;;;4986956;28;20134;-86
2023/06/07 09:27:08;;;;;;;8.07;4.15;;;;;;;;;;4969947;28;20467;-89
2023/06/07 09:29:41;;;;;;;12.15;4.07;;;16.90;99.90;;;;;;4971878;28;20046;-85
2023/06/07 09:32:20;;;;;;;8.98;4.68;;;17.00;99.90;;;;;;4986994;28;20408;-85
2023/06/07 09:34:46;;;;;;;8.93;3.88;;;17.20;99.90;;;;;;4970220;28;20045;-86
2023/06/07 09:37:14;;;;;;;11.95;4.07;;;;;;;;;;4993410;28;20090;-87
2023/06/07 09:39:40;;;;;;;15.93;5.00;;;;;;;;;;4991010;28;20050;-85
2023/06/07 09:42:16;;;;;;;10.10;3.55;;;17.10;99.90;;;;;;4976444;28;20598;-86
2023/06/07 09:44:42;;;;;;;10.70;4.20;;;17.20;99.90;;;;;;4983882;28;20042;-85
2023/06/07 09:47:22;;;;;;;10.40;3.80;;;17.40;99.90;;;;;;4990482;28;20054;-85
2023/06/07 09:49:48;;;;;;;13.10;4.10;;;;;;;;;;4991281;28;20049;-85
2023/06/07 09:52:15;;;;;;;10.02;3.90;;;17.40;99.90;;;;;;4978733;28;20042;-85
2023/06/07 09:54:45;;;;;;;7.38;3.35;;;17.40;99.90;;;;;;4983320;28;20038;-87
2023/06/07 09:57:26;;;;;;;10.77;3.50;;;17.50;99.90;;;;;;4989624;28;20061;-86
2023/06/07 09:59:58;;;;;;;9.63;4.75;;;18.90;99.90;;;;;;4972716;28;20116;-86
2023/06/07 10:02:28;;;;;;;7.93;3.65;;;17.60;99.90;;;;;;4990744;28;20093;-88
2023/06/07 10:04:56;;;;;;;12.82;4.78;;;;;;;;;;4985520;28;20037;-87
2023/06/07 10:07:27;;;;;;;14.07;4.35;;;17.60;99.90;;;;;;4988903;28;20085;-88
2023/06/07 10:09:56;;;;;;;12.00;4.10;;;17.80;99.90;;;;;;4987678;28;20041;-87
2023/06/07 10:12:22;;;;;;;9.80;3.83;;;;;;;;;;4970944;28;20044;-87
2023/06/07 10:14:51;;;;;;;11.77;4.65;;;17.80;99.90;;;;;;4975337;28;20042;-86
2023/06/07 10:17:21;;;;;;;12.50;3.83;;;17.80;99.90;;;;;;4972149;28;20044;-88
2023/06/07 10:19:52;;;;;;;10.88;4.93;;;18.10;99.90;;;;;;4980437;28;20145;-88
2023/06/07 10:22:25;;;;;;;10.82;3.85;;;18.10;99.90;;;;;;4977438;28;20049;-87
2023/06/07 10:24:56;;;;;;;13.10;3.80;;;18.10;99.90;;;;;;4978890;28;20042;-87
2023/06/07 10:27:24;;;;;;;9.68;3.50;;;18.10;99.90;;;;;;4990841;28;20044;-87
2023/06/07 10:30:06;;;;;;;8.63;4.00;;;18.10;99.90;;;;;;4971360;28;20069;-87
2023/06/07 10:32:36;;;;;;;12.00;4.32;;;;;;;;;;4998347;28;20115;-88
2023/06/07 10:35:03;;;;;;;8.82;3.85;;;18.10;99.90;;;;;;4989947;28;20033;-87
2023/06/07 10:37:30;;;;;;;9.70;4.10;;;;;;;;;;5006295;28;20586;-87
2023/06/07 10:39:57;;;;;;;10.02;3.45;;;18.40;99.90;;;;;;4970488;28;20395;-86
2023/06/07 10:42:24;;;;;;;12.38;3.42;;;18.60;99.90;;;;;;4987397;28;20046;-87
2023/06/07 10:44:51;;;;;;;12.18;4.10;;;;;;;;;;4969152;28;20714;-87
2023/06/07 10:47:26;;;;;;;9.63;3.90;;;18.50;99.90;;;;;;4996479;28;20113;-87
2023/06/07 10:49:52;;;;;;;9.50;3.42;;;;;;;;;;4972335;28;20797;-88
2023/06/07 10:52:18;;;;;;;8.15;3.33;;;;;;;;;;4986525;28;20049;-87
2023/06/07 10:54:45;;;;;;;15.00;3.45;;;;;;;;;;4972134;28;20152;-87
2023/06/07 10:57:11;;;;;;;18.17;4.60;;;;;;;;;;4973737;28;20067;-88
2023/06/07 10:59:38;;;;;;;7.90;3.67;;;18.70;99.90;;;;;;4979429;28;20077;-87
2023/06/07 11:02:24;;;;;;;11.23;3.78;;;18.60;99.90;;;;;;4972043;28;20045;-86
2023/06/07 11:04:51;;;;;;;15.65;4.07;;;19.00;99.90;;;;;;4989345;28;20937;-89
2023/06/07 11:07:30;;;;;;;11.63;3.50;;;19.00;99.90;;;;;;4986695;28;20112;-86
2023/06/07 11:10:02;;;;;;;7.57;3.97;;;18.80;99.90;;;;;;5002803;28;20033;-87
2023/06/07 11:12:46;;;;;;;8.57;3.70;;;19.00;99.90;;;;;;4985092;28;20054;-89
2023/06/07 11:15:17;;;;;;;15.68;4.68;;;18.90;99.90;;;;;;4980429;28;20416;-88
2023/06/07 11:17:50;;;;;;;11.73;4.75;;;18.80;99.90;;;;;;4958844;28;20034;-86
2023/06/07 11:20:35;;;;;;;10.02;4.25;;;19.10;99.90;;;;;;4982654;28;20042;-86
2023/06/07 11:23:20;;;;;;;9.57;4.03;;;19.20;99.90;;;;;;4971247;28;20052;-87
2023/06/07 11:25:46;;;;;;;10.90;4.63;;;;;;;;;;4970700;28;20126;-86
2023/06/07 11:28:13;;;;;;;11.35;4.00;;;;;;;;;;4982766;28;20042;-87
2023/06/07 11:30:42;;;;;;;9.68;4.80;;;19.30;99.90;;;;;;4982031;28;20451;-86
2023/06/07 11:33:09;;;;;;;10.40;4.20;;;;;;;;;;4962710;28;20038;-87
2023/06/07 11:35:36;;;;;;;9.90;4.25;;;;;;;;;;4989613;28;20703;-86
2023/06/07 11:38:05;;;;;;;19.13;4.40;;;19.40;99.90;;;;;;4988315;28;20054;-87
2023/06/07 11:40:31;;;;;;;6.95;3.70;;;;;;;;;;4975499;28;20042;-87
2023/06/07 11:42:57;;;;;;;11.90;3.80;;;;;;;;;;4965198;28;20485;-86
2023/06/07 11:45:23;;;;;;;9.18;4.13;;;;;;;;;;4986485;28;20048;-86
2023/06/07 11:47:49;;;;;;;11.10;4.38;;;;;;;;;;4984070;28;20403;-89
2023/06/07 11:50:16;;;;;;;23.10;5.07;;;19.60;99.90;;;;;;4973139;28;20073;-87
2023/06/07 11:52:42;;;;;;;16.48;5.63;;;;;;;;;;4980021;28;20042;-86
2023/06/07 11:55:10;;;;;;;9.48;5.28;;;19.60;99.90;;;;;;4971820;28;20091;-86
2023/06/07 11:57:38;;;;;;;12.05;5.82;;;;;;;;;;4970312;28;20045;-86
2023/06/07 12:00:17;;;;;;;11.35;5.22;;;19.70;99.90;;;;;;4984551;28;20535;-86
2023/06/07 12:02:44;;;;;;;13.38;5.10;;;;;;;;;;4990725;28;20674;-86
2023/06/07 12:05:10;;;;;;;10.88;5.05;;;;;;;;;;4978324;28;20100;-85
2023/06/07 12:07:36;;;;;;;14.25;5.50;;;;;;;;;;4972134;28;20046;-85
2023/06/07 12:10:03;;;;;;;14.25;6.00;;;20.00;99.90;;;;;;4989597;28;20045;-88
2023/06/07 12:12:29;;;;;;;12.98;4.90;;;;;;;;;;4972627;28;20037;-89
2023/06/07 12:15:05;;;;;;;10.80;5.07;;;19.90;99.90;;;;;;4989411;28;20042;-86
2023/06/07 12:17:34;;;;;;;11.10;4.55;;;19.90;99.90;;;;;;4972422;28;20108;-86
2023/06/07 12:20:28;;;;;;;12.57;5.25;;;20.00;99.90;;;;;;4983905;28;20038;-88
2023/06/07 12:23:05;;;;;;;11.13;4.60;;;20.00;99.90;;;;;;4985568;28;20053;-86
2023/06/07 12:25:33;;;;;;;14.38;5.07;;;;;;;;;;4985627;28;20077;-85
2023/06/07 12:28:04;;;;;;;11.32;4.78;;;20.00;99.90;;;;;;4973124;28;20101;-86
2023/06/07 12:30:34;;;;;;;15.05;6.03;;;20.00;99.90;;;;;;4980925;28;20132;-87
2023/06/07 12:33:00;;;;;;;11.75;5.38;;;;;;;;;;4979722;28;20078;-86
2023/06/07 12:35:37;;;;;;;11.07;4.93;;;20.00;99.90;;;;;;4972398;28;20069;-86
2023/06/07 12:38:03;;;;;;;8.75;4.53;;;;;;;;;;4972440;28;20124;-87
2023/06/07 12:40:29;;;;;;;14.38;4.75;;;;;;;;;;4985287;28;20637;-88
2023/06/07 12:42:55;;;;;;;14.02;4.15;;;;;;;;;;4970281;28;20042;-86
2023/06/07 12:45:21;;;;;;;9.95;4.18;;;;;;;;;;4985680;28;20049;-86
2023/06/07 12:47:47;;;;;;;11.80;4.68;;;;;;;;;;4981199;28;20040;-86
2023/06/07 12:50:13;;;;;;;12.63;4.70;;;;;;;;;;4985436;28;20060;-87
2023/06/07 12:52:39;;;;;;;12.48;5.57;;;;;;;;;;4980404;28;20043;-86
2023/06/07 12:55:06;;;;;;;12.27;5.25;;;;;;;;;;4991246;28;20129;-86
2023/06/07 12:57:31;;;;;;;16.30;5.10;;;;;;;;;;4976452;28;20043;-86
2023/06/07 12:59:57;;;;;;;13.00;6.38;;;;;;;;;;4968115;28;20095;-86
2023/06/07 13:02:23;;;;;;;12.60;4.80;;;;;;;;;;4976130;28;20041;-87
2023/06/07 13:04:49;;;;;;;14.57;5.25;;;;;;;;;;5011799;28;20049;-86
2023/06/07 13:07:15;;;;;;;10.88;4.55;;;;;;;;;;4969060;28;20433;-87
2023/06/07 13:09:41;;;;;;;8.20;4.60;;;;;;;;;;4972549;28;20046;-86
2023/06/07 13:12:10;;;;;;;11.57;4.88;;;20.50;99.90;;;;;;4973196;28;20133;-87
2023/06/07 13:14:36;;;;;;;15.93;5.05;;;;;;;;;;4974718;28;20046;-87
2023/06/07 13:17:02;;;;;;;11.52;5.07;;;;;;;;;;4970159;28;20041;-86
2023/06/07 13:19:28;;;;;;;12.65;4.28;;;20.20;99.90;;;;;;4992559;28;20030;-86
2023/06/07 13:21:54;;;;;;;11.68;4.80;;;20.20;99.90;;;;;;4985958;28;20121;-87
2023/06/07 13:24:19;;;;;;;14.70;4.65;;;20.40;99.90;;;;;;4975166;28;20699;-86
2023/06/07 13:26:45;;;;;;;10.77;4.50;;;;;;;;;;4990445;28;20045;-86
2023/06/07 13:29:11;;;;;;;12.50;4.22;;;;;;;;;;4985805;28;20046;-86
2023/06/07 13:31:37;;;;;;;13.45;4.68;;;;;;;;;;4991582;28;20049;-86
2023/06/07 13:34:06;;;;;;;7.80;3.85;;;;;;;;;;4983119;28;20042;-86
2023/06/07 13:36:31;;;;;;;10.20;4.00;;;20.40;99.90;;;;;;4992393;28;20065;-85
2023/06/07 13:38:58;;;;;;;10.95;4.15;;;;;;;;;;4974534;28;20042;-86
2023/06/07 13:41:25;;;;;;;12.70;4.38;;;;;;;;;;4989692;28;20168;-88
2023/06/07 13:43:51;;;;;;;12.18;5.25;;;;;;;;;;4975706;28;20049;-86
2023/06/07 13:46:17;;;;;;;11.57;4.22;;;20.40;99.90;;;;;;4992215;28;20046;-85
2023/06/07 13:48:43;;;;;;;6.43;4.00;;;;;;;;;;4963409;28;20045;-87
2023/06/07 13:51:11;;;;;;;12.75;3.85;;;;;;;;;;4986082;28;20420;-86
2023/06/07 13:53:39;;;;;;;11.75;4.07;;;20.40;99.90;;;;;;4988668;28;20099;-86
2023/06/07 13:56:05;;;;;;;13.43;4.35;;;20.30;99.90;;;;;;4965567;28;20046;-86
2023/06/07 13:58:33;;;;;;;10.65;4.28;;;;;;;;;;4970628;28;20087;-86
2023/06/07 14:01:02;;;;;;;13.60;4.72;;;;;;;;;;4971811;28;20081;-86
2023/06/07 14:03:32;;;;;;;8.18;4.20;;;20.40;99.90;;;;;;4990146;28;20451;-86